Weather at Palmerston Airport

Public forecast

Using degrees Celsius for public forecast. Weather courtesy of forecast.io.

Closest aviation weather report (METAR) to Palmerston Airport

Closest report is Waterloo Airport, 29.3 nm (54.3 km) SE. Retrieved 2021/01/16 23:00 UTC (43 minutes ago):

CYKF 162300Z AUTO 27011G20KT 9SM OVC019 M01/M04 A2949 RMK SLP998

Closest aviation forecast (TAF) to Palmerston Airport

Closest forecast is Waterloo Airport, 29.3 nm (54.3 km) SE. Retrieved 2021/01/16 20:45 UTC (3 hours ago):

TAF CYKF 161941Z 1620/1708 27010KT P6SM BKN015 TEMPO 1620/1624 SCT015 FM170000 28012KT P6SM BKN010 TEMPO 1700/1703 BKN008 FM170300 26012G22KT 4SM BR BKN006 TEMPO 1703/1708 P6SM NSW BKN010 RMK FCST BASED ON AUTO OBS NXT FCST BY 170200Z